Sealyon — 2CGJ2 — position and weather

sailwx.info

Track history (hours):
 
Tides and Currents Weather Stations Pressure Air Temp Water Temp Dewpoint Dewpoint Depression Visibility Wind Speed Wind Dir Waves Ship Positions

Sealyon

Last reported at 2016-Jan-10 11:18 UTC. Time now 2016-Feb-06 11:33 UTC.
Position N 18°28' W 064°35'.
Warning: this ship's position is 27 days out of date.

Length 62 m; draft 3.2 m.

Type: Pleasure craft. MMSI: 235072538.

Date/timePositionNaut miles runAvg speedWind from/ knotsBaromVisibWave heightAir tempDewpointWater temp
2016-Jan-10 11:18N 18°28' W 064°35'7 9.4
2016-Jan-10 10:33N 18°27' W 064°42'0 0.5
2016-Jan-10 09:33N 18°27' W 064°43'0 0.0
2016-Jan-10 08:33N 18°27' W 064°43'0 0.0
2016-Jan-10 07:33N 18°27' W 064°43'0 0.0
2016-Jan-10 06:33N 18°27' W 064°43'0 0.0
2016-Jan-10 05:34N 18°27' W 064°43'0 0.0
2016-Jan-10 04:33N 18°27' W 064°43'0 0.0
2016-Jan-10 03:32N 18°27' W 064°43'0 0.0
2016-Jan-10 02:33N 18°27' W 064°43'0 0.0
2016-Jan-10 01:33N 18°27' W 064°43'0 0.0
2016-Jan-10 00:30N 18°27' W 064°43'0 0.0
2016-Jan-09 23:32N 18°27' W 064°43'0 0.0
2016-Jan-09 22:33N 18°27' W 064°43'0 0.0
2016-Jan-09 21:33N 18°27' W 064°43'0 0.0
2016-Jan-09 20:33N 18°27' W 064°43'0 0.0
2016-Jan-09 19:28N 18°27' W 064°43'0 0.0
2016-Jan-09 18:26N 18°27' W 064°43'0 0.0
2016-Jan-09 17:33N 18°27' W 064°43'0 0.0
2016-Jan-09 16:30N 18°27' W 064°43'0 0.0
2016-Jan-09 15:33N 18°27' W 064°43'0 0.0
2016-Jan-09 14:33N 18°27' W 064°43'0 0.0
2016-Jan-09 13:34N 18°27' W 064°43'0 0.0
2016-Jan-09 12:33N 18°27' W 064°43'0 0.0
2016-Jan-09 11:33N 18°27' W 064°43'0 0.0
2016-Jan-09 10:33N 18°27' W 064°43'0 0.0
2016-Jan-09 09:33N 18°27' W 064°43'0 0.0
2016-Jan-09 08:33N 18°27' W 064°43'0 0.0
2016-Jan-09 07:33N 18°27' W 064°43'0 0.0
2016-Jan-09 06:33N 18°27' W 064°43'0 0.0
2016-Jan-09 05:31N 18°27' W 064°43'0 0.0
2016-Jan-09 04:33N 18°27' W 064°43'0 0.0
2016-Jan-09 03:33N 18°27' W 064°43'0 0.0
2016-Jan-09 02:33N 18°27' W 064°43'0 0.0
2016-Jan-09 01:33N 18°27' W 064°43'0 0.0
2016-Jan-09 00:33N 18°27' W 064°43'0 0.0
2016-Jan-08 23:33N 18°27' W 064°43'0 0.0
2016-Jan-08 22:33N 18°27' W 064°43'0 0.0
2016-Jan-08 21:33N 18°27' W 064°43'0 0.0
2016-Jan-08 20:33N 18°27' W 064°43'0 0.0
2016-Jan-08 19:33N 18°27' W 064°43'0 0.0
2016-Jan-08 18:33N 18°27' W 064°43'0 0.0
2016-Jan-08 17:33N 18°27' W 064°43'0 0.0
2016-Jan-08 16:32N 18°27' W 064°43'0 0.0
2016-Jan-08 15:33N 18°27' W 064°43'0 0.0
2016-Jan-08 14:33N 18°27' W 064°43'0 0.0
2016-Jan-08 13:33N 18°27' W 064°43'0 0.0
2016-Jan-08 12:33N 18°27' W 064°43'5 5.4
2016-Jan-08 11:33N 18°22' W 064°41'4 1.5
2016-Jan-08 08:32N 18°19' W 064°37'0 0.0
2016-Jan-08 07:13N 18°19' W 064°37'0 0.0
2016-Jan-08 06:20N 18°19' W 064°37'0 0.0
2016-Jan-08 05:15N 18°19' W 064°37'0 0.0
2016-Jan-08 03:26N 18°19' W 064°37'0 0.0
2016-Jan-07 23:05N 18°19' W 064°37'0 0.1
2016-Jan-07 20:21N 18°20' W 064°37'4 0.6
2016-Jan-07 14:18N 18°22' W 064°34'3 4.5
2016-Jan-07 13:33N 18°23' W 064°31'0 0.0
2016-Jan-07 12:33N 18°23' W 064°31'  
Track history (hours):
 
Tides and Currents Weather Stations Pressure Air Temp Water Temp Dewpoint Dewpoint Depression Visibility Wind Speed Wind Dir Waves Ship Positions

Sealyon

Last reported at 2016-Jan-10 11:18 UTC. Time now 2016-Feb-06 11:33 UTC.
Position N 18°28' W 064°35'.
Warning: this ship's position is 27 days out of date.

Length 62 m; draft 3.2 m.

Type: Pleasure craft. MMSI: 235072538.

Date/timePositionNaut miles runAvg speedWind from/ knotsBaromVisibWave heightAir tempDewpointWater temp
2016-Jan-10 11:18N 18°28' W 064°35'7 9.4
2016-Jan-10 10:33N 18°27' W 064°42'0 0.5
2016-Jan-10 09:33N 18°27' W 064°43'0 0.0
2016-Jan-10 08:33N 18°27' W 064°43'0 0.0
2016-Jan-10 07:33N 18°27' W 064°43'0 0.0
2016-Jan-10 06:33N 18°27' W 064°43'0 0.0
2016-Jan-10 05:34N 18°27' W 064°43'0 0.0
2016-Jan-10 04:33N 18°27' W 064°43'0 0.0
2016-Jan-10 03:32N 18°27' W 064°43'0 0.0
2016-Jan-10 02:33N 18°27' W 064°43'0 0.0
2016-Jan-10 01:33N 18°27' W 064°43'0 0.0
2016-Jan-10 00:30N 18°27' W 064°43'0 0.0
2016-Jan-09 23:32N 18°27' W 064°43'0 0.0
2016-Jan-09 22:33N 18°27' W 064°43'0 0.0
2016-Jan-09 21:33N 18°27' W 064°43'0 0.0
2016-Jan-09 20:33N 18°27' W 064°43'0 0.0
2016-Jan-09 19:28N 18°27' W 064°43'0 0.0
2016-Jan-09 18:26N 18°27' W 064°43'0 0.0
2016-Jan-09 17:33N 18°27' W 064°43'0 0.0
2016-Jan-09 16:30N 18°27' W 064°43'0 0.0
2016-Jan-09 15:33N 18°27' W 064°43'0 0.0
2016-Jan-09 14:33N 18°27' W 064°43'0 0.0
2016-Jan-09 13:34N 18°27' W 064°43'0 0.0
2016-Jan-09 12:33N 18°27' W 064°43'0 0.0
2016-Jan-09 11:33N 18°27' W 064°43'0 0.0
2016-Jan-09 10:33N 18°27' W 064°43'0 0.0
2016-Jan-09 09:33N 18°27' W 064°43'0 0.0
2016-Jan-09 08:33N 18°27' W 064°43'0 0.0
2016-Jan-09 07:33N 18°27' W 064°43'0 0.0
2016-Jan-09 06:33N 18°27' W 064°43'0 0.0
2016-Jan-09 05:31N 18°27' W 064°43'0 0.0
2016-Jan-09 04:33N 18°27' W 064°43'0 0.0
2016-Jan-09 03:33N 18°27' W 064°43'0 0.0
2016-Jan-09 02:33N 18°27' W 064°43'0 0.0
2016-Jan-09 01:33N 18°27' W 064°43'0 0.0
2016-Jan-09 00:33N 18°27' W 064°43'0 0.0
2016-Jan-08 23:33N 18°27' W 064°43'0 0.0
2016-Jan-08 22:33N 18°27' W 064°43'0 0.0
2016-Jan-08 21:33N 18°27' W 064°43'0 0.0
2016-Jan-08 20:33N 18°27' W 064°43'0 0.0
2016-Jan-08 19:33N 18°27' W 064°43'0 0.0
2016-Jan-08 18:33N 18°27' W 064°43'0 0.0
2016-Jan-08 17:33N 18°27' W 064°43'0 0.0
2016-Jan-08 16:32N 18°27' W 064°43'0 0.0
2016-Jan-08 15:33N 18°27' W 064°43'0 0.0
2016-Jan-08 14:33N 18°27' W 064°43'0 0.0
2016-Jan-08 13:33N 18°27' W 064°43'0 0.0
2016-Jan-08 12:33N 18°27' W 064°43'5 5.4
2016-Jan-08 11:33N 18°22' W 064°41'4 1.5
2016-Jan-08 08:32N 18°19' W 064°37'0 0.0
2016-Jan-08 07:13N 18°19' W 064°37'0 0.0
2016-Jan-08 06:20N 18°19' W 064°37'0 0.0
2016-Jan-08 05:15N 18°19' W 064°37'0 0.0
2016-Jan-08 03:26N 18°19' W 064°37'0 0.0
2016-Jan-07 23:05N 18°19' W 064°37'0 0.1
2016-Jan-07 20:21N 18°20' W 064°37'4 0.6
2016-Jan-07 14:18N 18°22' W 064°34'3 4.5
2016-Jan-07 13:33N 18°23' W 064°31'0 0.0
2016-Jan-07 12:33N 18°23' W 064°31'  

Dump ship's entire track history